Time;durP1;ratioP1;P1;durP2;ratioP2;P2;SDS_P1;SDS_P2;PMS_P1;PMS_P2;Temp;Humidity;BMP_temperature;BMP_pressure;BME280_temperature;BME280_humidity;BME280_pressure;Samples;Min_cycle;Max_cycle;Signal;HPM_P1;HPM_P2
2023/09/28 00:02:53;;;;;;;5.07;3.22;;;18.30;99.90;;;;;;4967685;28;20074;-61
2023/09/28 00:05:20;;;;;;;5.63;3.33;;;18.30;99.90;;;;;;4967754;28;20038;-61
2023/09/28 00:07:47;;;;;;;9.70;4.00;;;18.30;99.90;;;;;;4968073;28;20045;-62
2023/09/28 00:10:17;;;;;;;8.55;4.00;;;18.30;99.90;;;;;;4951418;28;20039;-61
2023/09/28 00:12:47;;;;;;;7.25;4.25;;;18.20;99.90;;;;;;4967625;28;20671;-61
2023/09/28 00:15:13;;;;;;;;;;;18.20;99.90;;;;;;4969176;28;20053;-61
2023/09/28 00:17:39;;;;;;;5.80;3.38;;;18.20;99.90;;;;;;4951341;28;19947;-62
2023/09/28 00:20:18;;;;;;;7.53;3.80;;;18.20;99.90;;;;;;4967001;28;20043;-61
2023/09/28 00:22:52;;;;;;;7.10;3.40;;;18.20;99.90;;;;;;4967200;28;20053;-60
2023/09/28 00:25:19;;;;;;;7.15;3.60;;;18.10;99.90;;;;;;4967456;28;20054;-60
2023/09/28 00:27:48;;;;;;;5.15;3.38;;;18.10;99.90;;;;;;4968011;28;20526;-60
2023/09/28 00:30:26;;;;;;;6.65;4.05;;;18.20;99.90;;;;;;4967444;28;20043;-60
2023/09/28 00:32:56;;;;;;;6.07;3.13;;;18.10;99.90;;;;;;4967852;28;20596;-61
2023/09/28 00:35:23;;;;;;;5.75;3.00;;;18.10;99.90;;;;;;4966723;28;20096;-62
2023/09/28 00:37:49;;;;;;;8.10;3.50;;;18.10;99.90;;;;;;4967002;28;20129;-60
2023/09/28 00:40:18;;;;;;;5.15;3.30;;;18.20;99.90;;;;;;4967988;28;20053;-60
2023/09/28 00:42:46;;;;;;;4.82;3.35;;;18.10;99.90;;;;;;4966315;28;20080;-60
2023/09/28 00:45:12;;;;;;;5.18;3.38;;;18.10;99.90;;;;;;4967078;28;20050;-61
2023/09/28 00:47:39;;;;;;;5.15;2.58;;;18.10;99.90;;;;;;4966952;28;20126;-60
2023/09/28 00:50:17;;;;;;;6.68;3.13;;;18.10;99.90;;;;;;4966356;28;20553;-61
2023/09/28 00:53:00;;;;;;;5.38;3.38;;;18.10;99.90;;;;;;4966913;28;20069;-60
2023/09/28 00:55:27;;;;;;;4.95;3.20;;;18.10;99.90;;;;;;4947096;28;20047;-60
2023/09/28 00:57:58;;;;;;;5.72;2.58;;;18.00;99.90;;;;;;4947448;29;20051;-61
2023/09/28 01:00:26;;;;;;;5.15;2.90;;;18.00;99.90;;;;;;4947555;29;20112;-60
2023/09/28 01:02:54;;;;;;;6.20;3.28;;;18.00;99.90;;;;;;4948069;28;20483;-60
2023/09/28 01:05:26;;;;;;;7.03;2.78;;;17.90;99.90;;;;;;4956458;28;20043;-60
2023/09/28 01:07:53;;;;;;;8.38;2.80;;;17.90;99.90;;;;;;4966462;28;20126;-61
2023/09/28 01:10:25;;;;;;;6.13;3.15;;;17.90;99.90;;;;;;4967216;28;20054;-61
2023/09/28 01:12:51;;;;;;;6.53;2.90;;;17.80;99.90;;;;;;4968049;28;20066;-60
2023/09/28 01:15:17;;;;;;;5.22;3.20;;;17.80;99.90;;;;;;4966889;28;20115;-60
2023/09/28 01:17:43;;;;;;;4.47;2.20;;;17.70;99.90;;;;;;4965877;28;20483;-60
2023/09/28 01:20:18;;;;;;;6.18;2.83;;;17.70;99.90;;;;;;4966642;28;20051;-60
2023/09/28 01:22:49;;;;;;;5.07;2.85;;;17.70;99.90;;;;;;4969552;28;20119;-60
2023/09/28 01:25:16;;;;;;;4.50;3.10;;;17.70;99.90;;;;;;4968425;28;20108;-60
2023/09/28 01:27:46;;;;;;;4.55;2.97;;;17.60;99.90;;;;;;4969746;28;20047;-60
2023/09/28 01:30:13;;;;;;;6.15;2.67;;;17.60;99.90;;;;;;4969373;28;20042;-60
2023/09/28 01:32:40;;;;;;;3.47;1.90;;;17.50;99.90;;;;;;4969235;28;20074;-61
2023/09/28 01:35:06;;;;;;;4.18;2.42;;;17.50;99.90;;;;;;4970203;28;20050;-61
2023/09/28 01:37:50;;;;;;;5.28;2.90;;;17.50;99.90;;;;;;4970689;28;20046;-61
2023/09/28 01:40:16;;;;;;;4.82;2.90;;;17.40;99.90;;;;;;4970619;28;20415;-60
2023/09/28 01:42:43;;;;;;;6.60;3.30;;;17.40;99.90;;;;;;4970683;28;20403;-60
2023/09/28 01:45:11;;;;;;;5.30;3.25;;;17.30;99.90;;;;;;4969048;28;20122;-60
2023/09/28 01:47:37;;;;;;;5.80;2.65;;;17.30;99.90;;;;;;4969550;28;20046;-60
2023/09/28 01:50:04;;;;;;;4.65;2.38;;;17.30;99.90;;;;;;4969511;28;20053;-60
2023/09/28 01:52:30;;;;;;;4.45;2.45;;;17.20;99.90;;;;;;4970336;28;20039;-60
2023/09/28 01:54:56;;;;;;;4.15;2.35;;;17.20;99.90;;;;;;4952267;28;20093;-60
2023/09/28 01:57:21;;;;;;;3.28;1.98;;;17.20;99.90;;;;;;4950158;28;20499;-60
2023/09/28 01:59:47;;;;;;;3.20;2.13;;;17.20;99.90;;;;;;4950752;28;20140;-60
2023/09/28 02:02:16;;;;;;;2.75;2.05;;;17.20;99.90;;;;;;4964125;28;20096;-59
2023/09/28 02:04:43;;;;;;;5.10;2.63;;;17.10;99.90;;;;;;4970630;28;20053;-60
2023/09/28 02:07:09;;;;;;;7.63;2.22;;;17.10;99.90;;;;;;4969079;28;20047;-59
2023/09/28 02:09:35;;;;;;;3.35;2.15;;;17.00;99.90;;;;;;4970460;28;20049;-59
2023/09/28 02:12:02;;;;;;;4.05;1.70;;;17.00;99.90;;;;;;4970020;28;20046;-60
2023/09/28 02:14:27;;;;;;;3.20;2.20;;;17.00;99.90;;;;;;4969387;28;20051;-59
2023/09/28 02:16:53;;;;;;;6.13;2.35;;;17.00;99.90;;;;;;4969024;28;20124;-59
2023/09/28 02:19:19;;;;;;;4.28;2.30;;;16.90;99.90;;;;;;4968810;28;20130;-59
2023/09/28 02:21:47;;;;;;;4.22;2.05;;;16.90;99.90;;;;;;4968996;28;20104;-59
2023/09/28 02:24:13;;;;;;;4.10;2.42;;;16.80;99.90;;;;;;4970377;28;20053;-59
2023/09/28 02:26:39;;;;;;;3.63;2.28;;;16.80;99.90;;;;;;4968469;28;20118;-60
2023/09/28 02:29:05;;;;;;;3.40;1.88;;;16.80;99.90;;;;;;4969228;28;20050;-60
2023/09/28 02:31:31;;;;;;;4.20;1.90;;;16.80;99.90;;;;;;4968980;28;20126;-59
2023/09/28 02:33:57;;;;;;;4.20;1.85;;;16.70;99.90;;;;;;4968204;28;20042;-59
2023/09/28 02:36:23;;;;;;;3.78;1.60;;;16.70;99.90;;;;;;4968948;28;20042;-59
2023/09/28 02:38:50;;;;;;;4.82;2.88;;;16.70;99.90;;;;;;4968141;28;20507;-60
2023/09/28 02:41:20;;;;;;;8.57;2.85;;;16.70;99.90;;;;;;4969514;28;20043;-60
2023/09/28 02:43:46;;;;;;;3.67;2.17;;;16.70;99.90;;;;;;4969059;28;20483;-59
2023/09/28 02:46:13;;;;;;;4.10;2.03;;;16.70;99.90;;;;;;4969753;28;20042;-60
2023/09/28 02:48:39;;;;;;;5.15;2.28;;;16.70;99.90;;;;;;4952282;28;20065;-59
2023/09/28 02:51:07;;;;;;;3.97;2.20;;;16.60;99.90;;;;;;4968988;28;20047;-60
2023/09/28 02:53:33;;;;;;;3.72;1.70;;;16.60;99.90;;;;;;4962177;28;20035;-59
2023/09/28 02:55:59;;;;;;;4.18;1.88;;;16.60;99.90;;;;;;4950042;28;20054;-59
2023/09/28 02:58:25;;;;;;;2.50;1.80;;;16.60;99.90;;;;;;4964266;28;20047;-59
2023/09/28 03:00:53;;;;;;;3.35;2.20;;;16.60;99.90;;;;;;4967933;28;20047;-59
2023/09/28 03:03:19;;;;;;;3.80;1.90;;;16.60;99.90;;;;;;4969658;28;20137;-59
2023/09/28 03:05:45;;;;;;;4.60;1.95;;;16.50;99.90;;;;;;4969812;28;20114;-59
2023/09/28 03:08:14;;;;;;;3.75;1.75;;;16.50;99.90;;;;;;4968224;28;20047;-60
2023/09/28 03:10:44;;;;;;;4.22;2.33;;;16.50;99.90;;;;;;4968449;28;20042;-59
2023/09/28 03:13:13;;;;;;;5.53;2.15;;;16.40;99.90;;;;;;4952172;28;20050;-59
2023/09/28 03:15:43;;;;;;;3.55;1.85;;;16.40;99.90;;;;;;4968990;28;20045;-59
2023/09/28 03:18:10;;;;;;;5.07;2.58;;;16.30;99.90;;;;;;4969358;28;20054;-59
2023/09/28 03:20:36;;;;;;;2.92;2.05;;;16.30;99.90;;;;;;4968208;28;20047;-59
2023/09/28 03:23:02;;;;;;;5.53;2.47;;;16.30;99.90;;;;;;4967635;28;20042;-59
2023/09/28 03:25:28;;;;;;;5.13;1.98;;;16.20;99.90;;;;;;4952334;28;20487;-59
2023/09/28 03:27:54;;;;;;;4.47;2.45;;;16.20;99.90;;;;;;4968023;28;20490;-59
2023/09/28 03:30:25;;;;;;;4.53;2.67;;;16.20;99.90;;;;;;4967543;28;20574;-59
2023/09/28 03:32:51;;;;;;;4.70;2.47;;;16.10;99.90;;;;;;4968393;28;20043;-59
2023/09/28 03:35:18;;;;;;;5.70;2.40;;;16.10;99.90;;;;;;4969259;28;20487;-59
2023/09/28 03:37:44;;;;;;;3.65;2.00;;;16.10;99.90;;;;;;4967324;28;20054;-59
2023/09/28 03:40:12;;;;;;;5.22;2.42;;;16.10;99.90;;;;;;4966377;28;20103;-59
2023/09/28 03:42:48;;;;;;;4.35;1.88;;;16.10;99.90;;;;;;4967609;28;20123;-59
2023/09/28 03:45:20;;;;;;;4.75;2.50;;;16.10;99.90;;;;;;4951034;28;20050;-59
2023/09/28 03:47:49;;;;;;;3.85;2.75;;;16.00;99.90;;;;;;4967886;28;20126;-59
2023/09/28 03:50:15;;;;;;;10.57;2.73;;;16.00;99.90;;;;;;4967222;28;20122;-60
2023/09/28 03:52:42;;;;;;;8.68;2.42;;;16.00;99.90;;;;;;4967385;28;20118;-59
2023/09/28 03:55:13;;;;;;;6.18;2.53;;;16.00;99.90;;;;;;4967665;28;20482;-59
2023/09/28 03:57:41;;;;;;;6.65;2.80;;;16.00;99.90;;;;;;4968417;28;20399;-59
2023/09/28 04:00:14;;;;;;;2.55;1.52;;;16.00;99.90;;;;;;4968822;28;20487;-60
2023/09/28 04:02:41;;;;;;;4.00;2.10;;;16.00;99.90;;;;;;4967743;28;20051;-59
2023/09/28 04:05:08;;;;;;;5.95;3.00;;;16.00;99.90;;;;;;4968246;28;20066;-60
2023/09/28 04:07:34;;;;;;;4.80;2.55;;;16.00;99.90;;;;;;4968877;28;20046;-59
2023/09/28 04:10:00;;;;;;;5.13;2.40;;;16.00;99.90;;;;;;4968807;28;20373;-59
2023/09/28 04:12:27;;;;;;;3.78;2.15;;;16.00;99.90;;;;;;4967080;28;20046;-59
2023/09/28 04:14:53;;;;;;;6.40;2.67;;;16.00;99.90;;;;;;4968660;28;20122;-59
2023/09/28 04:17:19;;;;;;;4.88;2.80;;;16.00;99.90;;;;;;4968663;28;20042;-59
2023/09/28 04:19:45;;;;;;;5.80;2.60;;;16.00;99.90;;;;;;4966784;28;20046;-59
2023/09/28 04:22:11;;;;;;;4.47;2.60;;;16.00;99.90;;;;;;4967236;28;20043;-59
2023/09/28 04:24:37;;;;;;;4.75;2.00;;;16.00;99.90;;;;;;4967285;28;20045;-59
2023/09/28 04:27:03;;;;;;;4.82;2.47;;;16.00;99.90;;;;;;4966907;28;20039;-59
2023/09/28 04:29:29;;;;;;;4.38;1.88;;;16.00;99.90;;;;;;4967192;28;20483;-59
2023/09/28 04:31:54;;;;;;;3.10;2.13;;;16.00;99.90;;;;;;4966944;28;20055;-59
2023/09/28 04:34:21;;;;;;;4.68;2.58;;;16.00;99.90;;;;;;4967007;28;20078;-59
2023/09/28 04:36:46;;;;;;;8.02;3.20;;;16.00;99.90;;;;;;4968314;28;20107;-59
2023/09/28 04:39:13;;;;;;;6.00;2.70;;;16.00;99.90;;;;;;4967379;28;20051;-59
2023/09/28 04:41:39;;;;;;;4.53;2.28;;;16.00;99.90;;;;;;4966110;28;20054;-59
2023/09/28 04:44:09;;;;;;;4.07;1.50;;;16.00;99.90;;;;;;4967600;28;20109;-59
2023/09/28 04:46:35;;;;;;;5.05;1.95;;;16.00;99.90;;;;;;4967574;28;20438;-59
2023/09/28 04:49:02;;;;;;;4.72;1.60;;;16.00;99.90;;;;;;4966827;28;20059;-59
2023/09/28 04:51:31;;;;;;;6.35;2.55;;;16.00;99.90;;;;;;4966770;28;20047;-59
2023/09/28 04:53:57;;;;;;;6.35;1.73;;;16.00;99.90;;;;;;4967374;28;20034;-59
2023/09/28 04:56:24;;;;;;;4.45;2.00;;;16.00;99.90;;;;;;4965779;28;20066;-59
2023/09/28 04:58:49;;;;;;;3.53;1.83;;;16.00;99.90;;;;;;4967728;28;20514;-59
2023/09/28 05:01:15;;;;;;;4.63;2.03;;;16.00;99.90;;;;;;4950367;28;20078;-59
2023/09/28 05:03:41;;;;;;;8.35;2.05;;;16.00;99.90;;;;;;4967909;28;20399;-59
2023/09/28 05:06:07;;;;;;;3.15;1.60;;;16.00;99.90;;;;;;4966610;28;20049;-59
2023/09/28 05:08:33;;;;;;;3.33;1.70;;;15.90;99.90;;;;;;4967534;28;20042;-59
2023/09/28 05:10:58;;;;;;;5.13;1.48;;;15.90;99.90;;;;;;4966795;28;20386;-59
2023/09/28 05:13:29;;;;;;;8.02;1.77;;;15.90;99.90;;;;;;4966592;28;20046;-59
2023/09/28 05:15:55;;;;;;;3.83;1.75;;;15.90;99.90;;;;;;4966057;28;20050;-59
2023/09/28 05:18:21;;;;;;;3.33;1.75;;;15.80;99.90;;;;;;4966578;28;20047;-59
2023/09/28 05:20:47;;;;;;;4.93;1.83;;;15.80;99.90;;;;;;4966556;28;20521;-59
2023/09/28 05:23:12;;;;;;;5.68;2.03;;;15.80;99.90;;;;;;4966500;28;20052;-59
2023/09/28 05:25:38;;;;;;;5.70;1.98;;;15.80;99.90;;;;;;4966765;28;20043;-59
2023/09/28 05:28:05;;;;;;;3.10;1.40;;;15.80;99.90;;;;;;4967103;28;20112;-59
2023/09/28 05:30:31;;;;;;;5.88;1.98;;;15.70;99.90;;;;;;4967649;28;20434;-59
2023/09/28 05:32:57;;;;;;;3.55;1.52;;;15.70;99.90;;;;;;4967880;28;20402;-59
2023/09/28 05:35:23;;;;;;;7.05;1.83;;;15.60;99.90;;;;;;4965668;28;20083;-59
2023/09/28 05:37:49;;;;;;;3.45;2.28;;;15.60;99.90;;;;;;4967557;28;20043;-59
2023/09/28 05:40:16;;;;;;;5.95;1.40;;;15.60;99.90;;;;;;4967180;28;20054;-59
2023/09/28 05:42:42;;;;;;;4.47;1.75;;;15.60;99.90;;;;;;4965717;28;20093;-59
2023/09/28 05:45:09;;;;;;;4.95;1.45;;;15.60;99.90;;;;;;4964834;28;20042;-59
2023/09/28 05:47:35;;;;;;;3.67;1.08;;;15.50;99.90;;;;;;4965856;28;20506;-59
2023/09/28 05:50:01;;;;;;;3.53;0.90;;;15.60;99.90;;;;;;4966878;28;20078;-59
2023/09/28 05:52:28;;;;;;;5.32;1.33;;;15.60;99.90;;;;;;4964292;28;20043;-59
2023/09/28 05:54:54;;;;;;;3.60;1.10;;;15.70;99.90;;;;;;4966966;28;20249;-59
2023/09/28 05:57:22;;;;;;;6.57;0.93;;;15.70;99.90;;;;;;4966343;28;20042;-59
2023/09/28 05:59:48;;;;;;;6.95;0.82;;;15.70;99.90;;;;;;4968236;28;20387;-59
2023/09/28 06:02:15;;;;;;;3.08;1.42;;;15.80;99.90;;;;;;4967915;28;20043;-59
2023/09/28 06:04:43;;;;;;;7.53;0.90;;;15.90;99.90;;;;;;4966582;28;20053;-59
2023/09/28 06:07:12;;;;;;;3.37;1.10;;;16.00;99.90;;;;;;4968455;28;20518;-59
2023/09/28 06:09:39;;;;;;;2.80;1.43;;;16.00;99.90;;;;;;4970600;28;20065;-59
2023/09/28 06:12:05;;;;;;;3.50;0.85;;;16.10;99.90;;;;;;4967402;28;20043;-59
2023/09/28 06:14:32;;;;;;;8.63;1.52;;;16.20;99.90;;;;;;4969227;28;20411;-59
2023/09/28 06:16:59;;;;;;;6.43;1.50;;;16.20;99.90;;;;;;4952561;28;20057;-59
2023/09/28 06:19:25;;;;;;;5.90;2.05;;;16.30;99.90;;;;;;4967683;28;20077;-59
2023/09/28 06:21:52;;;;;;;4.05;1.23;;;16.30;99.90;;;;;;4968811;28;20136;-60
2023/09/28 06:24:18;;;;;;;4.25;1.13;;;16.30;99.90;;;;;;4970074;28;20039;-60
2023/09/28 06:26:44;;;;;;;1.15;0.90;;;16.30;99.90;;;;;;4970289;28;20057;-60
2023/09/28 06:29:10;;;;;;;4.80;1.50;;;16.30;99.90;;;;;;4969226;28;20121;-60
2023/09/28 06:31:37;;;;;;;6.07;0.88;;;16.30;99.90;;;;;;4952165;28;20055;-60
2023/09/28 06:34:02;;;;;;;6.68;1.85;;;16.40;99.90;;;;;;4969009;28;20038;-60
2023/09/28 06:36:29;;;;;;;3.30;1.35;;;16.40;99.90;;;;;;4968791;28;20399;-60
2023/09/28 06:38:55;;;;;;;4.65;1.83;;;16.40;99.90;;;;;;4968246;28;20112;-60
2023/09/28 06:41:21;;;;;;;1.73;0.57;;;16.40;99.90;;;;;;4968656;28;20042;-60
2023/09/28 06:43:48;;;;;;;4.28;0.70;;;16.40;99.90;;;;;;4968790;28;20078;-60
2023/09/28 06:46:14;;;;;;;7.90;0.93;;;16.40;99.90;;;;;;4951839;28;20046;-60
2023/09/28 06:48:40;;;;;;;4.28;0.90;;;16.40;99.90;;;;;;4967613;28;20180;-60
2023/09/28 06:51:06;;;;;;;5.43;0.95;;;16.40;99.90;;;;;;4968946;28;20504;-60
2023/09/28 06:53:32;;;;;;;5.80;1.75;;;16.40;99.90;;;;;;4967887;28;20039;-60
2023/09/28 06:56:02;;;;;;;6.60;1.13;;;16.40;99.90;;;;;;4968581;28;20049;-60
2023/09/28 06:58:28;;;;;;;9.25;1.75;;;16.50;99.90;;;;;;4957737;28;20061;-60
2023/09/28 07:00:53;;;;;;;8.07;2.72;;;16.50;99.90;;;;;;4949890;29;20048;-60
2023/09/28 07:03:20;;;;;;;5.30;2.22;;;16.60;99.90;;;;;;4950255;29;20046;-60
2023/09/28 07:05:46;;;;;;;6.85;1.42;;;16.70;99.90;;;;;;4950394;29;20050;-60
2023/09/28 07:08:12;;;;;;;4.07;1.45;;;16.80;99.90;;;;;;4949967;29;20044;-60
2023/09/28 07:10:38;;;;;;;10.50;3.05;;;16.90;99.90;;;;;;4950261;29;20098;-60
2023/09/28 07:13:06;;;;;;;14.48;2.35;;;17.00;99.90;;;;;;4949936;29;20043;-60
2023/09/28 07:15:32;;;;;;;8.30;2.22;;;17.10;99.90;;;;;;4950231;29;20510;-60
2023/09/28 07:18:00;;;;;;;5.72;1.55;;;17.20;99.90;;;;;;4951330;28;20499;-60
2023/09/28 07:20:26;;;;;;;8.98;1.98;;;17.30;99.90;;;;;;4950036;28;20101;-60
2023/09/28 07:22:52;;;;;;;4.32;1.58;;;17.40;99.90;;;;;;4951346;28;20506;-60
2023/09/28 07:25:19;;;;;;;5.35;1.10;;;17.50;99.90;;;;;;4950109;29;20086;-60
2023/09/28 07:27:47;;;;;;;7.18;1.15;;;17.60;99.90;;;;;;4960214;28;20047;-60
2023/09/28 07:30:14;;;;;;;4.53;0.95;;;17.60;99.90;;;;;;4969374;28;20043;-60
2023/09/28 07:32:40;;;;;;;5.97;0.95;;;17.70;99.90;;;;;;4969259;28;20053;-60
2023/09/28 07:35:09;;;;;;;9.40;1.65;;;17.80;99.90;;;;;;4969929;28;20039;-60
2023/09/28 07:37:36;;;;;;;4.82;1.33;;;17.90;99.90;;;;;;4969452;28;20039;-60
2023/09/28 07:40:04;;;;;;;5.40;1.30;;;18.00;99.90;;;;;;4968922;28;20479;-60
2023/09/28 07:42:30;;;;;;;5.75;1.35;;;18.10;99.90;;;;;;4968377;28;20483;-60
2023/09/28 07:44:56;;;;;;;3.38;0.80;;;18.20;99.90;;;;;;4970327;28;20053;-60
2023/09/28 07:47:22;;;;;;;5.47;1.90;;;18.30;99.90;;;;;;4968881;28;20038;-60
2023/09/28 07:49:48;;;;;;;7.75;1.38;;;18.40;99.90;;;;;;4968333;28;20053;-60
2023/09/28 07:52:15;;;;;;;5.25;0.55;;;18.50;99.90;;;;;;4968240;28;20051;-61
2023/09/28 07:54:41;;;;;;;6.82;0.65;;;18.60;99.90;;;;;;4956011;28;20047;-60
2023/09/28 07:57:09;;;;;;;6.13;1.17;;;18.60;99.90;;;;;;4950498;28;20070;-60
2023/09/28 07:59:36;;;;;;;9.68;1.65;;;18.70;99.90;;;;;;4950990;28;20361;-61
2023/09/28 08:02:02;;;;;;;11.15;2.22;;;18.70;99.90;;;;;;4948867;29;20050;-61
2023/09/28 08:04:28;;;;;;;30.15;4.90;;;18.90;99.90;;;;;;4933647;29;20125;-61
2023/09/28 08:06:55;;;;;;;19.23;6.15;;;19.00;99.90;;;;;;4950669;28;20066;-61
2023/09/28 08:09:23;;;;;;;14.98;5.20;;;19.00;99.90;;;;;;4950249;28;20446;-61
2023/09/28 08:11:49;;;;;;;15.57;4.55;;;19.10;99.90;;;;;;4949311;29;20514;-61
2023/09/28 08:14:21;;;;;;;13.13;4.15;;;19.10;99.90;;;;;;4949599;29;20061;-61
2023/09/28 08:16:48;;;;;;;16.33;5.03;;;19.20;99.90;;;;;;4948876;28;20184;-61
2023/09/28 08:19:14;;;;;;;25.83;7.38;;;19.40;99.90;;;;;;4948223;29;20446;-61
2023/09/28 08:21:41;;;;;;;18.17;6.53;;;19.70;99.90;;;;;;4947885;28;20058;-61
2023/09/28 08:24:08;;;;;;;21.02;5.65;;;19.90;99.90;;;;;;4958922;28;20039;-61
2023/09/28 08:26:35;;;;;;;16.77;5.20;;;20.00;99.90;;;;;;4968543;28;20439;-61
2023/09/28 08:29:01;;;;;;;18.08;3.72;;;19.90;99.90;;;;;;4967072;28;20049;-61
2023/09/28 08:31:27;;;;;;;15.07;4.10;;;19.80;99.90;;;;;;4966521;28;20051;-61
2023/09/28 08:33:54;;;;;;;11.63;3.42;;;19.60;99.90;;;;;;4968214;28;20051;-61
2023/09/28 08:36:21;;;;;;;17.35;3.25;;;19.50;99.90;;;;;;4968151;28;20070;-61
2023/09/28 08:38:48;;;;;;;12.93;3.17;;;19.40;99.90;;;;;;4966381;28;20400;-61
2023/09/28 08:41:18;;;;;;;8.43;2.47;;;19.40;99.90;;;;;;4951284;28;20069;-61
2023/09/28 08:43:49;;;;;;;6.85;1.67;;;19.40;99.90;;;;;;4968318;28;20051;-61
2023/09/28 08:46:14;;;;;;;8.80;1.88;;;19.30;99.90;;;;;;4967101;28;20130;-61
2023/09/28 08:48:47;;;;;;;5.70;1.98;;;19.20;99.90;;;;;;4966671;28;20122;-61
2023/09/28 08:51:13;;;;;;;5.25;1.95;;;19.10;99.90;;;;;;4966388;28;20046;-61
2023/09/28 08:53:40;;;;;;;12.52;2.08;;;19.00;99.90;;;;;;4967026;28;20042;-61
2023/09/28 08:56:07;;;;;;;6.10;1.50;;;19.00;99.90;;;;;;4967440;28;20140;-61
2023/09/28 08:58:37;;;;;;;12.98;2.60;;;19.00;99.90;;;;;;4966235;28;20120;-61
2023/09/28 09:01:06;;;;;;;6.50;2.30;;;18.90;99.90;;;;;;4967943;28;20046;-60
2023/09/28 09:03:35;;;;;;;3.92;1.13;;;18.90;99.90;;;;;;4966822;28;20394;-60
2023/09/28 09:06:06;;;;;;;5.88;1.20;;;18.80;99.90;;;;;;4967319;28;20510;-61
2023/09/28 09:08:37;;;;;;;3.85;1.27;;;18.80;99.90;;;;;;4966693;28;20117;-61
2023/09/28 09:11:03;;;;;;;4.68;1.20;;;18.70;99.90;;;;;;4966243;28;20081;-61
2023/09/28 09:13:29;;;;;;;9.70;1.63;;;18.70;99.90;;;;;;4965763;28;20047;-61
2023/09/28 09:15:56;;;;;;;8.02;1.88;;;18.70;99.90;;;;;;4965288;28;20297;-60
2023/09/28 09:18:24;;;;;;;6.95;1.42;;;18.70;99.90;;;;;;4966309;28;20055;-61
2023/09/28 09:20:57;;;;;;;11.48;1.85;;;18.70;99.90;;;;;;4965713;28;20491;-61
2023/09/28 09:23:24;;;;;;;4.28;1.85;;;18.70;99.90;;;;;;4966559;28;20047;-61
2023/09/28 09:25:55;;;;;;;6.40;1.40;;;18.70;99.90;;;;;;4965903;28;20042;-61
2023/09/28 09:28:29;;;;;;;3.97;0.82;;;18.70;99.90;;;;;;4967590;28;20262;-61
2023/09/28 09:30:55;;;;;;;3.90;0.95;;;18.70;99.90;;;;;;4967805;28;20414;-61
2023/09/28 09:33:22;;;;;;;3.22;1.33;;;18.70;99.90;;;;;;4965843;28;20054;-61
2023/09/28 09:35:50;;;;;;;8.63;0.93;;;18.70;99.90;;;;;;4966292;28;20139;-61
2023/09/28 09:38:28;;;;;;;3.92;1.17;;;18.70;99.90;;;;;;4950088;28;20051;-61
2023/09/28 09:41:02;;;;;;;4.63;0.73;;;18.70;99.90;;;;;;4965697;28;20054;-61
2023/09/28 09:43:35;;;;;;;3.75;0.98;;;18.70;99.90;;;;;;4968913;28;20051;-61
2023/09/28 09:46:05;;;;;;;7.80;1.33;;;18.70;99.90;;;;;;4970766;28;20122;-61
2023/09/28 09:48:42;;;;;;;8.63;1.48;;;18.70;99.90;;;;;;4969028;28;20077;-61
2023/09/28 09:51:09;;;;;;;5.75;1.05;;;18.60;99.90;;;;;;4953478;28;20072;-61
2023/09/28 09:53:42;;;;;;;5.03;0.95;;;18.60;99.90;;;;;;4969639;28;20054;-61
2023/09/28 09:56:10;;;;;;;6.47;1.02;;;18.60;99.90;;;;;;4969669;28;20081;-61
2023/09/28 09:58:39;;;;;;;4.18;0.85;;;18.60;99.90;;;;;;4969876;28;20082;-61
2023/09/28 10:01:12;;;;;;;6.90;0.80;;;18.60;99.90;;;;;;4970116;28;20051;-61
2023/09/28 10:03:51;;;;;;;5.90;1.15;;;18.70;99.90;;;;;;4970590;28;20047;-61
2023/09/28 10:06:19;;;;;;;6.97;1.30;;;18.80;99.90;;;;;;4969518;28;20506;-61
2023/09/28 10:08:49;;;;;;;4.85;1.67;;;18.80;99.90;;;;;;4968771;28;20518;-61
2023/09/28 10:11:16;;;;;;;3.42;0.98;;;18.90;99.90;;;;;;4969619;28;20043;-61
2023/09/28 10:13:43;;;;;;;6.57;1.27;;;19.00;99.90;;;;;;4969206;28;20054;-61
2023/09/28 10:16:15;;;;;;;7.40;1.05;;;19.10;99.90;;;;;;4968489;28;20498;-61
2023/09/28 10:18:45;;;;;;;6.72;1.27;;;19.30;99.90;;;;;;4969311;28;20035;-61
2023/09/28 10:21:13;;;;;;;7.63;1.15;;;19.40;99.90;;;;;;4970832;28;20047;-61
2023/09/28 10:23:40;;;;;;;11.65;1.58;;;19.40;99.90;;;;;;4968640;28;20282;-61
2023/09/28 10:26:15;;;;;;;1.05;0.70;;;19.50;99.90;;;;;;4968999;28;20168;-61
2023/09/28 10:29:09;;;;;;;6.15;1.45;;;19.60;99.90;;;;;;4969695;28;20541;-61
2023/09/28 10:31:42;;;;;;;6.20;1.10;;;19.60;99.90;;;;;;4960131;28;20147;-61
2023/09/28 10:34:16;;;;;;;8.18;1.83;;;19.70;99.90;;;;;;4970090;28;20039;-61
2023/09/28 10:36:41;;;;;;;8.15;1.63;;;19.80;99.90;;;;;;4968323;28;20122;-61
2023/09/28 10:39:15;;;;;;;5.18;1.13;;;20.00;99.90;;;;;;4970017;28;20189;-61
2023/09/28 10:41:52;;;;;;;7.50;1.42;;;20.30;99.90;;;;;;4968623;28;20039;-61
2023/09/28 10:44:20;;;;;;;4.45;0.90;;;20.50;99.90;;;;;;4948949;29;20088;-61
2023/09/28 10:46:51;;;;;;;2.58;0.65;;;20.60;99.90;;;;;;4949289;29;20043;-61
2023/09/28 10:49:27;;;;;;;5.43;1.35;;;20.70;99.90;;;;;;4949252;29;20051;-61
2023/09/28 10:51:57;;;;;;;8.45;1.45;;;20.70;99.90;;;;;;4964843;28;20047;-62
2023/09/28 10:54:27;;;;;;;6.70;1.33;;;20.70;99.90;;;;;;4962468;28;20125;-61
2023/09/28 10:56:53;;;;;;;3.70;1.08;;;20.60;99.90;;;;;;4968244;28;20121;-61
2023/09/28 10:59:20;;;;;;;5.25;1.35;;;20.60;99.90;;;;;;4967687;28;20047;-61
2023/09/28 11:01:48;;;;;;;7.35;0.70;;;20.60;99.90;;;;;;4969448;28;20054;-61
2023/09/28 11:04:15;;;;;;;4.32;1.27;;;20.50;99.90;;;;;;4969290;28;20138;-61
2023/09/28 11:06:43;;;;;;;11.50;0.98;;;20.40;99.90;;;;;;4968596;28;20031;-61
2023/09/28 11:09:14;;;;;;;3.50;1.02;;;20.40;99.90;;;;;;4962379;28;20038;-61
2023/09/28 11:11:43;;;;;;;6.50;1.13;;;20.30;99.90;;;;;;4967563;28;20051;-61
2023/09/28 11:14:10;;;;;;;;;;;20.30;99.90;;;;;;4968714;28;20075;-61
2023/09/28 11:16:41;;;;;;;5.80;1.15;;;20.20;99.90;;;;;;4968171;28;19918;-61
2023/09/28 11:19:09;;;;;;;2.60;0.80;;;20.10;99.90;;;;;;4967660;28;20066;-61
2023/09/28 11:21:35;;;;;;;4.68;1.30;;;20.10;99.90;;;;;;4969468;28;20165;-62
2023/09/28 11:24:02;;;;;;;6.15;1.10;;;20.10;99.90;;;;;;4969393;28;20078;-61
2023/09/28 11:26:29;;;;;;;8.63;1.63;;;20.10;99.90;;;;;;4967410;28;20057;-61
2023/09/28 11:28:57;;;;;;;9.13;2.17;;;20.00;99.90;;;;;;4949080;28;20051;-61
2023/09/28 11:31:23;;;;;;;6.20;1.85;;;20.00;99.90;;;;;;4950151;28;20049;-61
2023/09/28 11:33:49;;;;;;;6.70;1.52;;;19.90;99.90;;;;;;4949437;28;20043;-61
2023/09/28 11:36:21;;;;;;;8.80;1.50;;;19.90;99.90;;;;;;4949011;28;20078;-61
2023/09/28 11:38:48;;;;;;;7.53;1.25;;;19.90;99.90;;;;;;4953980;28;20067;-61
2023/09/28 11:41:14;;;;;;;7.20;2.03;;;19.90;99.90;;;;;;4968990;28;20043;-61
2023/09/28 11:43:53;;;;;;;5.55;0.68;;;19.90;99.90;;;;;;4968871;28;20050;-61
2023/09/28 11:46:32;;;;;;;8.30;1.75;;;20.00;99.90;;;;;;4968619;28;20081;-61
2023/09/28 11:49:04;;;;;;;4.78;0.80;;;20.00;99.90;;;;;;4967559;28;20039;-61
2023/09/28 11:51:34;;;;;;;4.60;1.33;;;20.10;99.90;;;;;;4969011;28;20049;-61
2023/09/28 11:54:01;;;;;;;4.72;1.10;;;20.20;99.90;;;;;;4950675;28;20484;-61
2023/09/28 11:56:28;;;;;;;9.45;1.15;;;20.20;99.90;;;;;;4968762;28;20042;-61
2023/09/28 11:58:55;;;;;;;4.85;0.82;;;20.10;99.90;;;;;;4967586;28;20129;-61
2023/09/28 12:01:21;;;;;;;2.58;0.50;;;19.90;99.90;;;;;;4966640;28;20078;-61
2023/09/28 12:03:47;;;;;;;7.25;1.20;;;19.80;99.90;;;;;;4966507;28;20081;-61
2023/09/28 12:06:14;;;;;;;8.10;1.67;;;19.70;99.90;;;;;;4967123;28;20118;-61
2023/09/28 12:08:41;;;;;;;3.70;1.00;;;19.70;99.90;;;;;;4967960;28;20039;-61
2023/09/28 12:11:08;;;;;;;3.55;1.08;;;19.70;99.90;;;;;;4968619;28;20035;-61
2023/09/28 12:13:33;;;;;;;3.72;1.40;;;19.80;99.90;;;;;;4968432;28;20050;-61
2023/09/28 12:16:00;;;;;;;2.72;0.52;;;19.80;99.90;;;;;;4966802;28;20410;-61
2023/09/28 12:18:27;;;;;;;5.50;1.02;;;19.80;99.90;;;;;;4967579;28;20117;-61
2023/09/28 12:20:53;;;;;;;2.97;0.35;;;19.90;99.90;;;;;;4966941;28;20453;-61
2023/09/28 12:23:19;;;;;;;5.53;0.70;;;19.80;99.90;;;;;;4968380;28;20042;-61
2023/09/28 12:25:44;;;;;;;8.90;0.85;;;19.80;99.90;;;;;;4967171;28;20046;-61
2023/09/28 12:28:10;;;;;;;3.80;1.10;;;19.80;99.90;;;;;;4953654;28;20039;-61
2023/09/28 12:30:36;;;;;;;3.83;0.90;;;19.90;99.90;;;;;;4948139;28;20043;-61
2023/09/28 12:33:02;;;;;;;3.35;0.98;;;19.90;99.90;;;;;;4949079;28;20043;-61
2023/09/28 12:35:28;;;;;;;2.72;0.57;;;20.00;99.90;;;;;;4957414;28;20043;-61
2023/09/28 12:37:54;;;;;;;3.92;0.98;;;20.00;99.90;;;;;;4967144;28;20043;-62
2023/09/28 12:40:20;;;;;;;6.85;1.00;;;20.00;99.90;;;;;;4966954;28;20415;-61
2023/09/28 12:42:46;;;;;;;1.55;0.47;;;20.00;99.90;;;;;;4950354;28;20498;-61
2023/09/28 12:45:12;;;;;;;5.78;1.27;;;20.00;99.90;;;;;;4967226;28;20034;-61
2023/09/28 12:47:39;;;;;;;2.10;0.63;;;20.00;99.90;;;;;;4967017;28;20055;-61
2023/09/28 12:50:06;;;;;;;5.57;0.98;;;20.00;99.90;;;;;;4966239;28;20305;-61